Agana Heights, GU

5:47 PM ChST on January 26, 2015 (GMT +1000)
Maite | Change Station
CLOSE
Current Station
Personal Weather Station
Location: Maite, GU
Elevation: 140 ft
Nearby Weather Stations
Active Advisory: High Surf Advisory

Elev 140 ft 13.48 °N, 144.76 °E | Updated 11 seconds ago

Partly Cloudy
Partly Cloudy
82.4 °F
Feels Like 90 °F
N
4.0
Wind Variable Wind from NE
Gusts 12.0 mph

Today
High -- | Low -- °F
--% Chance of Precip.
Yesterday
High -- | Low -- °F
Precip. -- in
6:48 AM 6:18 PM
Waxing Crescent, 40% visible
Pressure 29.86 in
Visibility 10.0 miles
Clouds Few 2700 ft
Heat Index 90 °F
Dew Point 76 °F
Humidity 80%
Rainfall 0.05 in
Snow Depth Not available.
UV 0.0 out of 12
Pollen Not available.
Air Quality Not available.
Flu Activity Not available.
METAR PGUM 260654Z 06010KT 10SM FEW027 29/23 A2988 RMK AO2 SLP111 T02940228

More Conditions Fewer Conditions

Pressure 29.86 in
Visibility 10.0 miles
Clouds Few 2700 ft
Heat Index 90 °F
Dew Point 76 °F
Humidity 80%
Rainfall 0.05 in
Snow Depth Not available.
UV 0.0 out of 12
Pollen Not available.
Air Quality Not available.
Flu Activity Not available.
METAR PGUM 260654Z 06010KT 10SM FEW027 29/23 A2988 RMK AO2 SLP111 T02940228

More Conditions Fewer Conditions

10-Day Weather Forecast

Almanac

Astronomy

Jan. 26, 2015 Rise Set
Actual Time
Civil Twilight
Nautical Twilight
Astronomical Twilight
Moon
Length of Visible Light
Length of Day
Tomorrow will be .
, % of the Moon is Illuminated

Today's Extremes

State Highs State Lows

Community

WunderPhotos

Upload Photos

1,790,155 photos uploaded!

WunderBlogs® & News

Nearby

Air Quality

  Air Quality AQ Index Pollutant
Not available.

Snow Depth

Station Depth Elevation

Earthquake Activity

City Distance Mag. Time & Date
Minimum magnitude displayed is 2.5.

Coastal Water Temperatures

Place Temperature

Nearby Weather Stations